Putney, Vermont
Current Conditions -  °F | °C
As of 8:52 AM on Thursday 27 Nov 2014 (Local Time) from KAFN Reporting Station
NA  
Wind Chill: 28°   Ceiling: NA
Heat Index: 28°   Visibility: 10mi
Dew Point: 24°   Wind: 0mph
Humidity: 85%   Direction: NA
Pressure: 29.89"   Gusts: NA
Location:  42.97°N, 72.52°W
Report Text: KAFN 271352Z AUTO 00000KT 10SM M02/M04 A2989 RMK AO2 SLP138 T10221044 $
Loading
Personal Weather Stations






























Interactive Weather Map New forecast layout! Learn more

10-Day Weather Forecast

Advertisements
Track Severe Weather on mobile